Latest Weather Observations for Portland Airport

IDV60801

Issued at 7:12 pm EDT Wednesday 22 January 2020 (issued every 10 minutes, with the page automatically refreshed every 10 minutes)

About weather observations | Map of weather stations | Latest weather observations for VIC | Other Formats
Station Details ID: 090171 Name: CASHMORE AIRPORT Lat: -38.31 Lon: 141.47 Height: 80.9 m
Data from the previous 72 hours. | See also: Recent months at Portland Airport
Date/Time
EDT
Temp
°C
App
Temp
°C
Dew
Point
°C
Rel
Hum
%
Delta-T
°C
Wind Press
QNH
hPa
Press
MSL
hPa
Rain since
9am
mm
Dir  Spd
km/h
Gust
km/h
Spd
kts
Gust
kts
22/07:00pm 13.7 12.2 11.9 89 1.0 NNW 11 15 6 8 997.7 997.6 4.0
22/06:30pm 13.8 11.5 11.8 88 1.1 NNW 15 20 8 11 997.6 997.5 3.6
22/06:00pm 13.8 10.8 11.8 88 1.1 NW 19 26 10 14 997.3 997.2 3.4
22/05:30pm 13.8 10.2 12.0 89 1.0 NW 22 30 12 16 997.7 997.6 2.8
22/05:00pm 13.8 10.6 12.0 89 1.0 WNW 20 28 11 15 997.3 997.2 2.6
22/04:30pm 14.1 10.3 12.5 90 0.9 WNW 24 37 13 20 997.7 997.6 2.0
22/04:00pm 14.3 9.4 12.7 90 0.9 WNW 30 39 16 21 997.9 997.8 1.8
22/03:30pm 14.8 10.9 13.2 90 0.9 WNW 26 35 14 19 997.8 997.7 1.6
22/03:03pm 14.7 10.4 13.1 90 0.9 WNW 28 46 15 25 997.7 997.6 1.2
22/03:00pm 14.8 10.9 13.2 90 0.9 WNW 26 39 14 21 997.8 997.7 1.2
22/02:40pm 14.5 10.1 12.9 90 0.9 WNW 28 35 15 19 998.1 998.0 1.2
22/02:30pm 14.4 9.2 12.8 90 0.9 WNW 32 41 17 22 998.2 998.1 1.2
22/02:00pm 14.7 10.7 12.9 89 1.0 WNW 26 35 14 19 998.3 998.2 1.0
22/01:30pm 15.3 9.7 13.3 88 1.1 W 35 54 19 29 997.9 997.8 0.6
22/01:28pm 15.4 9.8 13.4 88 1.1 W 35 54 19 29 997.9 997.8 0.6
22/01:14pm 15.9 10.8 13.7 87 1.2 W 33 48 18 26 997.2 997.1 0.6
22/01:00pm 16.2 11.7 13.9 86 1.3 W 30 39 16 21 996.9 996.7 0.6
22/12:30pm 16.4 10.5 12.4 77 2.2 W 35 46 19 25 996.5 996.3 0.0
22/12:00pm 17.5 10.7 11.8 69 3.2 W 39 48 21 26 996.2 996.0 0.0
22/11:30am 18.2 11.9 11.0 63 3.9 W 35 46 19 25 996.6 996.4 0.0
22/11:05am 20.4 14.2 9.3 49 5.9 W 32 52 17 28 996.3 996.1 0.0
22/11:00am 22.1 18.0 8.6 42 7.2 W 20 37 11 20 996.2 996.0 0.0
22/10:30am 25.3 19.3 7.0 31 9.6 NNW 28 41 15 22 995.9 995.7 0.0
22/10:00am 24.3 18.8 7.4 34 9.0 NNW 26 37 14 20 996.0 995.8 0.0
22/09:38am 23.8 17.7 6.6 33 8.9 NNW 28 50 15 27 996.1 995.9 0.0
22/09:30am 23.5 18.0 7.6 36 8.4 N 26 37 14 20 996.0 995.8 0.0
22/09:00am 20.2 16.7 8.8 48 6.1 NNE 17 22 9 12 996.5 996.3 0.0
22/08:30am 18.8 15.9 9.6 55 4.9 N 15 19 8 10 996.9 996.7 0.0
22/08:00am 17.1 14.2 9.5 61 4.0 N 15 20 8 11 997.0 996.8 0.0
22/07:30am 15.9 13.2 9.1 64 3.5 N 13 19 7 10 997.3 997.2 0.0
22/07:00am 14.6 11.9 9.0 69 2.9 N 13 17 7 9 997.4 997.3 0.0
22/06:30am 14.2 11.7 9.6 74 2.4 N 13 17 7 9 997.7 997.6 0.0
22/06:00am 13.0 10.4 9.4 79 1.8 N 13 19 7 10 998.0 997.9 0.0
22/05:30am 11.7 9.7 8.6 81 1.5 N 9 13 5 7 998.4 998.3 0.0
22/05:00am 12.1 10.1 8.8 80 1.7 N 9 13 5 7 999.0 998.9 0.0
22/04:30am 12.7 9.7 9.3 80 1.7 N 15 20 8 11 999.6 999.4 0.0
22/04:00am 12.5 9.6 9.5 82 1.5 N 15 20 8 11 999.9 999.7 0.0
22/03:30am 11.9 10.1 9.3 84 1.3 N 9 15 5 8 1000.5 1000.3 0.0
22/03:00am 11.3 9.3 8.7 84 1.3 NNE 9 13 5 7 1001.2 1001.0 0.0
22/02:30am 11.9 9.2 9.1 83 1.4 NNE 13 17 7 9 1002.1 1001.9 0.0
22/02:00am 11.6 9.6 8.8 83 1.4 NNE 9 15 5 8 1002.7 1002.5 0.0
22/01:30am 12.2 9.6 9.2 82 1.5 NE 13 17 7 9 1003.1 1002.9 0.0
22/01:00am 12.5 10.3 9.3 81 1.6 NE 11 15 6 8 1004.0 1003.8 0.0
22/12:30am 12.6 10.4 9.2 80 1.7 NE 11 15 6 8 1004.5 1004.3 0.0
22/12:00am 12.6 10.7 8.9 78 1.9 NE 9 13 5 7 1005.1 1004.9 0.0
 
Date/Time
EDT
Temp
°C
App
Temp
°C
Dew
Point
°C
Rel
Hum
%
Delta-T
°C
Wind Press
QNH
hPa
Press
MSL
hPa
Rain since
9am
mm
Dir  Spd
km/h
Gust
km/h
Spd
kts
Gust
kts
21/11:30pm 12.8 10.9 9.1 78 1.9 ENE 9 13 5 7 1005.4 1005.2 0.0
21/11:00pm 12.0 9.5 8.3 78 1.8 SE 11 13 6 7 1005.7 1005.5 0.0
21/10:30pm 11.8 10.8 7.5 75 2.1 SE 2 6 1 3 1006.4 1006.2 0.0
21/10:00pm 11.7 10.2 7.0 73 2.3 SE 4 9 2 5 1006.4 1006.2 0.0
21/09:30pm 12.9 12.4 7.8 71 2.5 CALM 0 0 0 0 1006.9 1006.7 0.0
21/09:00pm 14.2 13.9 8.6 69 2.8 CALM 0 0 0 0 1007.0 1006.8 0.0
21/08:30pm 15.6 14.1 9.3 66 3.3 S 7 9 4 5 1006.8 1006.6 0.0
21/08:00pm 16.2 14.3 9.2 63 3.6 SSE 9 13 5 7 1006.7 1006.5 0.0
21/07:30pm 16.8 14.9 9.2 61 4.0 S 9 15 5 8 1006.9 1006.7 0.0
21/07:00pm 17.1 14.9 9.5 61 4.0 S 11 17 6 9 1006.8 1006.6 0.0
21/06:30pm 17.4 15.6 9.3 59 4.2 S 9 15 5 8 1006.8 1006.6 0.0
21/06:00pm 17.9 15.7 9.5 58 4.4 SSW 11 17 6 9 1007.1 1006.9 0.0
21/05:30pm 18.0 15.9 9.6 58 4.4 S 11 17 6 9 1007.3 1007.1 0.0
21/05:00pm 18.3 15.9 10.2 59 4.3 S 13 19 7 10 1007.7 1007.6 0.0
21/04:30pm 18.4 15.2 10.0 58 4.5 S 17 26 9 14 1008.0 1007.9 0.0
21/04:00pm 19.4 15.7 9.6 53 5.2 WSW 19 24 10 13 1008.5 1008.4 0.0
21/03:30pm 19.5 16.3 10.0 54 5.1 W 17 24 9 13 1008.7 1008.6 0.0
21/03:00pm 18.9 14.6 9.4 54 5.0 W 22 30 12 16 1009.2 1009.1 0.0
21/02:30pm 18.6 14.9 9.4 55 4.9 WSW 19 28 10 15 1009.4 1009.3 0.0
21/02:00pm 18.7 14.9 9.2 54 5.0 W 19 28 10 15 1009.8 1009.7 0.0
21/01:30pm 18.8 15.2 8.2 50 5.5 WSW 17 22 9 12 1010.2 1010.1 0.0
21/01:00pm 18.4 14.7 7.8 50 5.4 WSW 17 24 9 13 1010.7 1010.6 0.0
21/12:30pm 18.7 15.0 8.1 50 5.5 W 17 24 9 13 1011.1 1011.0 0.0
21/12:00pm 18.1 15.1 7.5 50 5.4 W 13 20 7 11 1011.2 1011.1 0.0
21/11:30am 17.8 13.8 6.7 48 5.5 WSW 17 24 9 13 1011.4 1011.3 0.0
21/11:00am 17.8 14.0 7.5 51 5.2 WSW 17 22 9 12 1011.6 1011.5 0.0
21/10:30am 17.6 14.9 7.4 51 5.1 WSW 11 17 6 9 1011.6 1011.5 0.0
21/10:00am 16.2 13.6 7.7 57 4.3 W 11 15 6 8 1011.8 1011.7 0.0
21/09:30am 15.8 13.4 8.5 62 3.7 WSW 11 15 6 8 1011.7 1011.6 0.0
21/09:00am 15.5 12.7 8.5 63 3.6 WSW 13 19 7 10 1011.6 1011.5 0.0
21/08:30am 14.6 12.7 9.2 70 2.8 WSW 9 13 5 7 1011.6 1011.5 0.0
21/08:00am 14.1 12.9 9.5 74 2.4 SW 6 9 3 5 1011.4 1011.3 0.0
21/07:30am 12.7 11.3 8.8 77 2.0 S 6 7 3 4 1011.0 1010.9 0.0
21/07:00am 12.0 10.9 8.3 78 1.8 SSW 4 9 2 5 1010.8 1010.7 0.0
21/06:30am 12.1 11.6 8.0 76 2.0 CALM 0 0 0 0 1010.7 1010.6 0.0
21/06:00am 12.7 11.2 8.4 75 2.1 S 6 7 3 4 1010.4 1010.3 0.0
21/05:30am 12.6 10.8 8.1 74 2.2 S 7 13 4 7 1010.3 1010.2 0.0
21/05:00am 12.9 11.3 8.6 75 2.2 S 7 11 4 6 1010.2 1010.1 0.0
21/04:30am 12.5 10.9 8.2 75 2.1 S 6 9 3 5 1010.2 1010.1 0.0
21/04:00am 12.6 10.5 8.3 75 2.1 S 9 13 5 7 1010.2 1010.1 0.0
21/03:30am 12.8 10.8 8.7 76 2.1 SSW 9 13 5 7 1010.3 1010.2 0.0
21/03:00am 12.4 10.8 7.9 74 2.2 SSE 6 9 3 5 1010.4 1010.3 0.0
21/02:30am 12.6 10.4 7.9 73 2.3 S 9 13 5 7 1010.8 1010.7 0.0
21/02:00am 13.0 10.9 8.3 73 2.3 S 9 17 5 9 1011.1 1011.0 0.0
21/01:30am 12.9 10.8 8.2 73 2.3 SSW 9 15 5 8 1011.2 1011.1 0.0
21/01:00am 13.1 11.0 8.2 72 2.4 S 9 11 5 6 1011.6 1011.5 0.0
21/12:30am 13.3 10.8 8.4 72 2.5 S 11 19 6 10 1011.7 1011.6 0.0
21/12:00am 14.0 11.6 8.6 70 2.7 S 11 17 6 9 1011.8 1011.7 0.0
 
Date/Time
EDT
Temp
°C
App
Temp
°C
Dew
Point
°C
Rel
Hum
%
Delta-T
°C
Wind Press
QNH
hPa
Press
MSL
hPa
Rain since
9am
mm
Dir  Spd
km/h
Gust
km/h
Spd
kts
Gust
kts
20/11:30pm 14.4 12.0 8.6 68 2.9 S 11 17 6 9 1012.0 1011.9 0.0
20/11:00pm 14.4 12.4 8.8 69 2.8 S 9 15 5 8 1012.1 1012.0 0.0
20/10:30pm 14.5 12.2 9.1 70 2.8 S 11 19 6 10 1012.4 1012.2 0.0
20/10:00pm 14.5 12.3 9.3 71 2.7 S 11 19 6 10 1012.1 1012.0 0.0
20/09:30pm 14.5 11.9 9.3 71 2.7 S 13 20 7 11 1011.8 1011.7 0.0
20/09:00pm 14.8 12.2 9.4 70 2.8 S 13 19 7 10 1011.4 1011.3 0.0
20/08:30pm 14.8 11.9 9.6 71 2.7 S 15 22 8 12 1011.3 1011.2 0.0
20/08:00pm 14.9 12.1 9.9 72 2.6 S 15 22 8 12 1011.0 1010.9 0.0
20/07:30pm 15.3 12.1 9.9 70 2.8 S 17 24 9 13 1010.6 1010.5 0.0
20/07:00pm 15.6 12.4 9.9 69 3.0 S 17 26 9 14 1010.4 1010.3 0.0
20/06:30pm 15.7 13.0 10.2 70 2.9 S 15 24 8 13 1010.3 1010.2 0.0
20/06:00pm 15.6 12.5 10.4 71 2.8 S 17 28 9 15 1010.1 1010.0 0.0
20/05:30pm 15.8 12.7 10.3 70 2.9 SSE 17 28 9 15 1010.1 1010.0 0.0
20/05:00pm 16.1 13.0 10.4 69 3.0 S 17 30 9 16 1010.0 1009.9 0.0
20/04:30pm 17.2 14.2 11.9 71 2.9 S 19 33 10 18 1010.1 1010.0 0.0
20/04:00pm 17.3 14.2 11.6 69 3.1 S 19 30 10 16 1010.1 1010.0 0.0
20/03:30pm 17.3 13.7 11.8 70 3.0 S 22 32 12 17 1010.0 1009.9 0.0
20/03:00pm 18.0 14.6 12.5 70 3.1 SSE 22 33 12 18 1010.0 1009.9 0.0
20/02:30pm 17.1 13.9 11.8 71 2.9 SSE 20 35 11 19 1009.9 1009.8 0.0
20/02:00pm 16.7 13.0 11.6 72 2.8 SSE 22 33 12 18 1010.0 1009.9 0.0
20/01:30pm 16.0 12.3 11.6 75 2.4 SSE 22 33 12 18 1010.0 1009.9 0.0
20/01:00pm 15.9 11.9 11.7 76 2.3 SSE 24 39 13 21 1010.0 1009.9 0.0
20/12:30pm 16.0 12.5 12.2 78 2.1 SSE 22 35 12 19 1010.0 1009.9 0.0
20/12:28pm 15.9 12.0 12.1 78 2.1 SSE 24 39 13 21 1010.1 1010.0 0.0
20/12:00pm 15.7 12.2 12.1 79 2.0 SSE 22 35 12 19 1009.9 1009.8 0.0
20/11:30am 15.6 11.4 12.4 81 1.8 SSE 26 37 14 20 1009.6 1009.5 0.0
20/11:00am 15.6 11.2 12.9 84 1.5 SSE 28 41 15 22 1009.5 1009.4 0.0
20/10:30am 15.5 12.4 13.3 87 1.2 SSE 22 39 12 21 1009.5 1009.4 0.0
20/10:00am 15.3 12.2 13.3 88 1.1 SSE 22 44 12 24 1009.4 1009.3 0.0
20/09:30am 14.4 10.3 12.8 90 0.9 SSE 26 43 14 23 1009.4 1009.3 0.0
20/09:00am 14.5 11.2 12.9 90 0.9 SSE 22 43 12 23 1009.5 1009.4 9.8
20/08:30am 14.7 11.9 13.1 90 0.9 SSE 20 30 11 16 1009.3 1009.2 9.8
20/08:00am 14.6 12.3 13.1 91 0.8 SSE 17 28 9 15 1009.2 1009.1 9.8
20/07:30am 14.5 11.6 13.0 91 0.8 SSE 20 33 11 18 1008.9 1008.8 9.8
20/07:00am 14.3 11.6 13.0 92 0.7 SSE 19 32 10 17 1008.6 1008.5 9.8
20/06:30am 14.1 11.4 12.8 92 0.7 SSE 19 33 10 18 1008.5 1008.4 9.8
20/06:24am 14.0 11.2 12.7 92 0.7 SSE 19 33 10 18 1008.6 1008.5 9.8
20/06:00am 14.1 11.2 12.8 92 0.7 SSE 20 35 11 19 1008.5 1008.4 9.4
20/05:30am 14.1 11.2 12.8 92 0.7 SSE 20 32 11 17 1008.4 1008.3 8.4
20/05:18am 14.3 11.4 13.0 92 0.7 SSE 20 33 11 18 1008.3 1008.2 7.8
20/05:15am 14.2 11.3 12.9 92 0.7 SSE 20 33 11 18 1008.3 1008.2 7.8
20/05:00am 14.1 11.4 13.0 93 0.6 SSE 19 32 10 17 1008.2 1008.1 7.6
20/04:30am 14.1 11.4 12.8 92 0.7 SSE 19 28 10 15 1008.1 1008.0 3.6
20/04:00am 14.5 11.9 13.2 92 0.7 SSE 19 35 10 19 1008.3 1008.2 1.4
20/03:30am 14.5 12.3 13.2 92 0.7 SSE 17 32 9 17 1008.6 1008.5 1.2
20/03:00am 14.5 11.3 13.2 92 0.7 SE 22 41 12 22 1008.8 1008.7 1.2
20/02:30am 14.7 12.0 13.4 92 0.7 SE 20 35 11 19 1009.1 1009.0 0.8
20/02:00am 14.8 11.3 13.5 92 0.7 SE 24 39 13 21 1009.1 1009.0 0.8
20/01:39am 14.7 11.6 13.4 92 0.7 SSE 22 33 12 18 1009.0 1008.9 0.6
20/01:37am 14.8 11.7 13.5 92 0.7 SSE 22 33 12 18 1008.9 1008.8 0.6
20/01:30am 14.7 11.2 13.4 92 0.7 SE 24 39 13 21 1008.9 1008.8 0.6
20/01:00am 14.6 11.1 13.3 92 0.7 SE 24 35 13 19 1009.1 1009.0 0.6
20/12:33am 14.6 11.1 13.3 92 0.7 SSE 24 39 13 21 1009.2 1009.1 0.6
20/12:30am 14.6 11.1 13.3 92 0.7 SSE 24 39 13 21 1009.2 1009.1 0.6
20/12:22am 14.6 10.7 13.3 92 0.7 SSE 26 39 14 21 1009.3 1009.2 0.6
20/12:00am 14.5 10.9 13.2 92 0.7 SSE 24 37 13 20 1009.2 1009.1 0.6
 
Date/Time
EDT
Temp
°C
App
Temp
°C
Dew
Point
°C
Rel
Hum
%
Delta-T
°C
Wind Press
QNH
hPa
Press
MSL
hPa
Rain since
9am
mm
Dir  Spd
km/h
Gust
km/h
Spd
kts
Gust
kts
19/11:30pm 14.8 12.2 13.3 91 0.8 SSE 19 30 10 16 1009.5 1009.4 0.4
19/11:00pm 14.9 11.8 13.4 91 0.8 SSE 22 32 12 17 1009.6 1009.5 0.2
19/10:30pm 15.1 11.6 13.5 90 0.9 SE 24 37 13 20 1009.6 1009.5 0.0
19/10:05pm 15.2 11.8 13.6 90 0.9 SE 24 37 13 20 1009.5 1009.4 0.0
19/10:00pm 15.2 11.8 13.6 90 0.9 SE 24 37 13 20 1009.4 1009.3 0.0
19/09:56pm 15.1 10.5 13.5 90 0.9 SE 30 44 16 24 1009.4 1009.3 0.0
19/09:30pm 15.2 11.3 13.4 89 1.0 SE 26 41 14 22 1009.2 1009.1 0.0
19/09:26pm 15.2 11.7 13.4 89 1.0 SE 24 41 13 22 1009.2 1009.1 0.0
19/09:00pm 15.6 11.4 13.6 88 1.1 SE 28 41 15 22 1009.1 1009.0 0.0
19/08:43pm 15.6 11.4 13.6 88 1.1 SE 28 46 15 25 1008.9 1008.8 0.0
19/08:30pm 15.7 11.2 13.9 89 1.0 SE 30 43 16 23 1008.7 1008.6 0.0
19/08:00pm 15.6 11.1 13.8 89 1.0 SE 30 44 16 24 1008.0 1007.9 0.0
19/07:54pm 15.5 11.0 13.7 89 1.0 SE 30 44 16 24 1007.9 1007.8 0.0
19/07:44pm 15.6 11.5 13.8 89 1.0 SE 28 46 15 25 1007.8 1007.7 0.0
19/07:32pm 15.7 11.6 13.9 89 1.0 SE 28 43 15 23 1007.4 1007.2 0.0
19/07:30pm 15.8 11.4 14.0 89 1.0 SE 30 44 16 24 1007.4 1007.2 0.0

Other formats

Comma delimited format used in spreadsheet applications
http://www.bom.gov.au/fwo/IDV60801/IDV60801.94828.axf

JavaScript Object Notation format (JSON) in row-major order
http://www.bom.gov.au/fwo/IDV60801/IDV60801.94828.json

Data quality

Most of these data are generated automatically and are frequently updated. Quality checks on data are not normally performed. It is possible for incorrect values to appear. Refer to information at About Latest Weather Observations and please check the disclaimer before using these data.